createdAt,value
2018-02-04T00:01:18.144Z,9.80
2018-02-04T00:03:46.432Z,12.73
2018-02-04T00:06:14.825Z,8.90
2018-02-04T00:08:43.132Z,13.60
2018-02-04T00:11:11.509Z,11.50
2018-02-04T00:13:39.840Z,6.53
2018-02-04T00:16:08.144Z,6.43
2018-02-04T00:18:36.534Z,8.47
2018-02-04T00:21:04.874Z,8.00
2018-02-04T00:23:34.734Z,5.20
2018-02-04T00:26:03.843Z,5.27
2018-02-04T00:28:32.181Z,5.50
2018-02-04T00:31:00.499Z,5.50
2018-02-04T00:33:29.569Z,4.63
2018-02-04T00:35:58.269Z,5.33
2018-02-04T00:38:26.564Z,5.53
2018-02-04T00:40:54.876Z,7.90
2018-02-04T00:43:23.211Z,5.97
2018-02-04T00:45:51.532Z,5.70
2018-02-04T00:48:20.125Z,5.83
2018-02-04T00:50:48.609Z,5.73
2018-02-04T00:53:16.929Z,5.97
2018-02-04T00:55:45.998Z,4.43
2018-02-04T00:58:14.348Z,6.30
2018-02-04T01:00:42.673Z,4.30
2018-02-04T01:03:11.774Z,4.80
2018-02-04T01:05:40.098Z,5.20
2018-02-04T01:08:08.396Z,5.60
2018-02-04T01:10:37.482Z,5.40
2018-02-04T01:13:05.802Z,6.20
2018-02-04T01:15:34.096Z,4.87
2018-02-04T01:18:02.404Z,6.40
2018-02-04T01:20:30.767Z,4.90
2018-02-04T01:22:59.866Z,5.33
2018-02-04T01:25:28.188Z,7.83
2018-02-04T01:27:56.479Z,5.53
2018-02-04T01:30:24.772Z,5.57
2018-02-04T01:32:53.099Z,5.93
2018-02-04T01:35:22.187Z,5.83
2018-02-04T01:37:50.478Z,5.40
2018-02-04T01:40:19.518Z,6.90
2018-02-04T01:42:47.825Z,7.40
2018-02-04T01:45:16.136Z,6.87
2018-02-04T01:47:44.436Z,5.70
2018-02-04T01:50:13.515Z,6.73
2018-02-04T01:52:41.822Z,5.40
2018-02-04T01:55:10.126Z,8.30
2018-02-04T01:57:38.406Z,7.03
2018-02-04T02:00:06.702Z,6.13
2018-02-04T02:02:35.005Z,7.13
2018-02-04T02:05:03.308Z,6.67
2018-02-04T02:07:32.593Z,7.97
2018-02-04T02:10:00.909Z,5.87
2018-02-04T02:12:29.964Z,5.67
2018-02-04T02:14:58.942Z,7.20
2018-02-04T02:17:27.278Z,8.10
2018-02-04T02:19:56.361Z,6.23
2018-02-04T02:22:24.653Z,6.00
2018-02-04T02:24:53.707Z,6.50
2018-02-04T02:27:22.011Z,7.37
2018-02-04T02:29:50.333Z,6.73
2018-02-04T02:32:18.654Z,8.43
2018-02-04T02:34:46.987Z,5.90
2018-02-04T02:37:16.040Z,7.10
2018-02-04T02:39:44.359Z,6.80
2018-02-04T02:42:13.471Z,20.17
2018-02-04T02:44:42.531Z,7.23
2018-02-04T02:47:10.832Z,9.50
2018-02-04T02:49:39.124Z,6.70
2018-02-04T02:52:08.203Z,8.40
2018-02-04T02:54:36.494Z,6.33
2018-02-04T02:57:04.871Z,7.60
2018-02-04T02:59:33.199Z,6.53
2018-02-04T03:02:01.501Z,9.10
2018-02-04T03:04:29.789Z,8.60
2018-02-04T03:06:58.845Z,9.80
2018-02-04T03:09:28.048Z,6.90
2018-02-04T03:11:57.125Z,9.10
2018-02-04T03:14:25.431Z,6.37
2018-02-04T03:16:54.509Z,8.30
2018-02-04T03:19:22.819Z,6.27
2018-02-04T03:21:51.108Z,9.10
2018-02-04T03:24:19.497Z,5.70
2018-02-04T03:26:47.785Z,6.50
2018-02-04T03:29:16.061Z,11.33
2018-02-04T03:31:44.382Z,8.23
2018-02-04T03:34:12.671Z,8.30
2018-02-04T03:36:40.987Z,8.57
2018-02-04T03:39:09.275Z,8.13
2018-02-04T03:41:37.599Z,7.63
2018-02-04T03:44:05.913Z,8.77
2018-02-04T03:46:34.965Z,6.27
2018-02-04T03:49:03.340Z,7.53
2018-02-04T03:51:31.635Z,10.60
2018-02-04T03:53:59.926Z,8.20
2018-02-04T03:56:28.247Z,6.30
2018-02-04T03:58:57.290Z,7.17
2018-02-04T04:01:25.597Z,6.10
2018-02-04T04:03:53.897Z,6.40
2018-02-04T04:06:22.211Z,6.73
2018-02-04T04:08:50.497Z,7.13
2018-02-04T04:11:18.789Z,5.90
2018-02-04T04:13:47.081Z,7.10
2018-02-04T04:16:15.453Z,7.27
2018-02-04T04:18:43.789Z,8.33
2018-02-04T04:21:12.095Z,11.47
2018-02-04T04:23:40.432Z,5.43
2018-02-04T04:26:08.773Z,3.93
2018-02-04T04:28:37.901Z,4.20
2018-02-04T04:31:06.303Z,5.33
2018-02-04T04:33:34.601Z,4.80
2018-02-04T04:36:03.679Z,3.73
2018-02-04T04:38:31.976Z,4.07
2018-02-04T04:41:00.313Z,4.30
2018-02-04T04:43:28.605Z,4.60
2018-02-04T04:45:56.929Z,4.83
2018-02-04T04:48:25.233Z,3.57
2018-02-04T04:50:53.551Z,4.10
2018-02-04T04:53:21.862Z,4.40
2018-02-04T04:55:50.165Z,5.37
2018-02-04T04:58:19.287Z,4.93
2018-02-04T05:00:47.573Z,5.97
2018-02-04T05:03:15.857Z,5.90
2018-02-04T05:05:44.189Z,4.10
2018-02-04T05:08:12.627Z,4.97
2018-02-04T05:10:40.926Z,4.97
2018-02-04T05:13:09.225Z,5.00
2018-02-04T05:15:37.604Z,8.60
2018-02-04T05:18:06.744Z,4.10
2018-02-04T05:20:36.079Z,3.83
2018-02-04T05:23:04.413Z,3.50
2018-02-04T05:25:32.698Z,3.03
2018-02-04T05:28:01.004Z,5.53
2018-02-04T05:30:29.333Z,5.43
2018-02-04T05:32:57.645Z,6.60
2018-02-04T05:35:25.949Z,4.10
2018-02-04T05:37:54.520Z,4.67
2018-02-04T05:40:22.901Z,6.10
2018-02-04T05:42:51.974Z,5.00
2018-02-04T05:45:20.297Z,3.97
2018-02-04T05:47:49.489Z,5.20
2018-02-04T05:50:18.554Z,5.60
2018-02-04T05:52:46.944Z,3.60
2018-02-04T05:55:15.303Z,4.50
2018-02-04T05:57:43.615Z,5.27
2018-02-04T06:00:11.933Z,4.23
2018-02-04T06:02:40.989Z,3.33
2018-02-04T06:05:09.298Z,6.50
2018-02-04T06:07:37.597Z,7.20
2018-02-04T06:10:06.725Z,5.10
2018-02-04T06:12:35.025Z,4.77
2018-02-04T06:15:03.346Z,5.40
2018-02-04T06:17:32.414Z,6.77
2018-02-04T06:20:00.937Z,4.67
2018-02-04T06:22:29.983Z,4.30
2018-02-04T06:24:58.287Z,4.40
2018-02-04T06:27:27.439Z,3.73
2018-02-04T06:29:55.747Z,5.00
2018-02-04T06:32:24.033Z,4.37
2018-02-04T06:34:52.323Z,4.23
2018-02-04T06:37:20.653Z,4.17
2018-02-04T06:39:49.729Z,4.77
2018-02-04T06:42:18.013Z,5.87
2018-02-04T06:44:46.319Z,4.73
2018-02-04T06:47:14.635Z,4.80
2018-02-04T06:49:43.133Z,4.83
2018-02-04T06:52:11.420Z,4.20
2018-02-04T06:54:39.707Z,7.00
2018-02-04T06:57:08.008Z,4.37
2018-02-04T06:59:37.105Z,7.40
2018-02-04T07:02:05.427Z,4.00
2018-02-04T07:04:33.785Z,4.43
2018-02-04T07:07:02.867Z,4.40
2018-02-04T07:09:32.044Z,7.20
2018-02-04T07:12:00.356Z,5.77
2018-02-04T07:14:29.383Z,4.83
2018-02-04T07:16:57.751Z,5.93
2018-02-04T07:19:26.809Z,4.40
2018-02-04T07:21:55.119Z,6.27
2018-02-04T07:24:23.455Z,7.80
2018-02-04T07:26:51.765Z,15.77
2018-02-04T07:29:20.105Z,8.53
2018-02-04T07:31:48.465Z,9.57
2018-02-04T07:34:17.601Z,8.43
2018-02-04T07:36:45.922Z,19.50
2018-02-04T07:39:14.249Z,8.23
2018-02-04T07:41:42.570Z,12.20
2018-02-04T07:44:10.997Z,10.23
2018-02-04T07:46:40.057Z,8.90
2018-02-04T07:49:08.401Z,7.23
2018-02-04T07:51:36.706Z,9.07
2018-02-04T07:54:05.073Z,13.40
2018-02-04T07:56:34.103Z,12.40
2018-02-04T07:59:03.160Z,6.90
2018-02-04T08:01:31.507Z,7.07
2018-02-04T08:04:00.593Z,7.57
2018-02-04T08:06:29.691Z,5.80
2018-02-04T08:08:58.027Z,8.43
2018-02-04T08:11:26.383Z,6.13
2018-02-04T08:13:54.725Z,6.90
2018-02-04T08:16:23.108Z,7.70
2018-02-04T08:18:51.423Z,11.00
2018-02-04T08:21:20.511Z,8.80
2018-02-04T08:23:48.811Z,8.10
2018-02-04T08:26:17.904Z,7.80
2018-02-04T08:28:47.257Z,7.60
2018-02-04T08:31:15.557Z,6.63
2018-02-04T08:33:44.757Z,8.97
2018-02-04T08:36:13.399Z,9.13
2018-02-04T08:38:41.715Z,6.00
2018-02-04T08:41:10.036Z,10.10
2018-02-04T08:43:39.961Z,12.63
2018-02-04T08:46:09.317Z,16.00
2018-02-04T08:48:37.937Z,8.20
2018-02-04T08:51:06.261Z,10.40
2018-02-04T08:53:35.545Z,7.70
2018-02-04T08:56:04.903Z,8.43
2018-02-04T08:58:33.211Z,10.70
2018-02-04T09:01:01.521Z,7.60
2018-02-04T09:03:30.835Z,8.30
2018-02-04T09:06:00.941Z,9.10
2018-02-04T09:08:29.275Z,10.43
2018-02-04T09:10:57.611Z,3.97
2018-02-04T09:13:26.675Z,5.43
2018-02-04T09:15:54.976Z,6.03
2018-02-04T09:18:23.528Z,6.63
2018-02-04T09:20:51.856Z,10.27
2018-02-04T09:23:20.932Z,5.03
2018-02-04T09:25:49.225Z,9.67
2018-02-04T09:28:19.211Z,8.23
2018-02-04T09:30:47.591Z,4.53
2018-02-04T09:33:15.901Z,6.97
2018-02-04T09:35:44.209Z,6.37
2018-02-04T09:38:14.372Z,7.70
2018-02-04T09:40:42.734Z,6.00
2018-02-04T09:43:11.048Z,6.57
2018-02-04T09:45:39.371Z,8.03
2018-02-04T09:48:07.669Z,6.10
2018-02-04T09:50:36.718Z,7.70
2018-02-04T09:53:05.014Z,12.43
2018-02-04T09:55:33.307Z,9.27
2018-02-04T09:58:02.206Z,6.13
2018-02-04T10:00:30.532Z,4.73
2018-02-04T10:02:58.832Z,7.60
2018-02-04T10:05:27.205Z,11.00
2018-02-04T10:07:55.525Z,6.83
2018-02-04T10:10:24.839Z,6.00
2018-02-04T10:12:54.921Z,8.97
2018-02-04T10:15:23.267Z,4.13
2018-02-04T10:17:51.578Z,4.53
2018-02-04T10:20:19.882Z,10.73
2018-02-04T10:22:48.233Z,6.50
2018-02-04T10:25:16.622Z,4.97
2018-02-04T10:27:44.940Z,5.73
2018-02-04T10:30:13.300Z,5.83
2018-02-04T10:32:41.693Z,4.70
2018-02-04T10:35:09.990Z,4.03
2018-02-04T10:37:39.115Z,6.57
2018-02-04T10:40:08.387Z,5.20
2018-02-04T10:42:38.042Z,4.30
2018-02-04T10:45:07.818Z,4.03
2018-02-04T10:47:36.189Z,5.83
2018-02-04T10:50:04.499Z,3.47
2018-02-04T10:52:32.826Z,2.80
2018-02-04T10:55:01.164Z,4.43
2018-02-04T10:57:29.469Z,4.83
2018-02-04T10:59:57.788Z,3.30
2018-02-04T11:02:26.090Z,4.90
2018-02-04T11:04:54.386Z,3.83
2018-02-04T11:07:22.919Z,4.00
2018-02-04T11:09:51.224Z,3.30
2018-02-04T11:12:20.246Z,5.30
2018-02-04T11:14:48.570Z,3.87
2018-02-04T11:17:16.886Z,6.63
2018-02-04T11:19:45.206Z,4.70
2018-02-04T11:22:14.330Z,3.40
2018-02-04T11:24:42.729Z,5.30
2018-02-04T11:27:11.042Z,3.57
2018-02-04T11:29:39.361Z,4.20
2018-02-04T11:32:20.992Z,4.70
2018-02-04T11:34:49.290Z,5.33
2018-02-04T11:37:17.632Z,4.47
2018-02-04T11:39:46.030Z,4.00
2018-02-04T11:42:14.322Z,3.60
2018-02-04T11:44:42.665Z,4.40
2018-02-04T11:47:12.099Z,5.50
2018-02-04T11:49:41.020Z,4.80
2018-02-04T11:52:09.345Z,5.37
2018-02-04T11:54:38.411Z,4.80
2018-02-04T11:57:06.716Z,7.20
2018-02-04T11:59:36.418Z,5.10
2018-02-04T12:02:04.920Z,7.03
2018-02-04T12:04:34.002Z,4.20
2018-02-04T12:07:02.363Z,4.37
2018-02-04T12:09:30.714Z,3.80
2018-02-04T12:11:59.028Z,5.63
2018-02-04T12:14:27.432Z,3.60
2018-02-04T12:16:55.734Z,6.40
2018-02-04T12:19:24.843Z,5.07
2018-02-04T12:21:54.417Z,4.27
2018-02-04T12:24:22.988Z,4.70
2018-02-04T12:26:52.102Z,4.27
2018-02-04T12:29:20.431Z,3.47
2018-02-04T12:31:48.809Z,4.53
2018-02-04T12:34:17.908Z,5.00
2018-02-04T12:36:46.223Z,3.90
2018-02-04T12:39:14.511Z,4.37
2018-02-04T12:41:43.088Z,5.67
2018-02-04T12:44:11.427Z,4.63
2018-02-04T12:46:40.507Z,4.33
2018-02-04T12:49:08.824Z,4.53
2018-02-04T12:51:38.118Z,4.93
2018-02-04T12:54:06.433Z,6.87
2018-02-04T12:56:35.014Z,7.07
2018-02-04T12:59:03.343Z,4.50
2018-02-04T13:01:31.700Z,5.47
2018-02-04T13:04:00.026Z,5.50
2018-02-04T13:06:28.348Z,5.70
2018-02-04T13:08:56.663Z,4.60
2018-02-04T13:11:24.985Z,6.27
2018-02-04T13:13:54.064Z,8.90
2018-02-04T13:16:22.368Z,7.57
2018-02-04T13:18:51.432Z,4.30
2018-02-04T13:21:19.710Z,5.10
2018-02-04T13:23:48.025Z,3.93
2018-02-04T13:26:17.107Z,10.90
2018-02-04T13:28:46.172Z,4.93
2018-02-04T13:31:15.118Z,6.67
2018-02-04T13:33:44.318Z,5.60
2018-02-04T13:36:12.588Z,4.97
2018-02-04T13:38:40.890Z,5.90
2018-02-04T13:41:10.048Z,7.07
2018-02-04T13:43:38.349Z,7.37
2018-02-04T13:46:06.712Z,4.80
2018-02-04T13:48:35.166Z,6.00
2018-02-04T13:51:03.524Z,7.87
2018-02-04T13:53:32.587Z,6.03
2018-02-04T13:56:00.904Z,4.30
2018-02-04T13:58:29.958Z,6.77
2018-02-04T14:00:58.264Z,7.07
2018-02-04T14:03:26.555Z,5.80
2018-02-04T14:05:54.856Z,10.30
2018-02-04T14:08:23.182Z,6.23
2018-02-04T14:10:51.492Z,7.23
2018-02-04T14:13:19.813Z,7.93
2018-02-04T14:15:48.122Z,6.30
2018-02-04T14:18:16.419Z,9.60
2018-02-04T14:20:44.762Z,12.03
2018-02-04T14:23:13.062Z,9.40
2018-02-04T14:25:41.434Z,9.30
2018-02-04T14:28:10.508Z,6.03
2018-02-04T14:30:39.557Z,9.67
2018-02-04T14:33:07.872Z,8.73
2018-02-04T14:35:36.202Z,8.97
2018-02-04T14:38:04.491Z,8.40
2018-02-04T14:40:32.786Z,7.37
2018-02-04T14:43:01.122Z,8.83
2018-02-04T14:45:30.689Z,6.20
2018-02-04T14:47:59.852Z,10.40
2018-02-04T14:50:28.168Z,8.70
2018-02-04T14:52:56.761Z,10.20
2018-02-04T14:55:26.705Z,8.00
2018-02-04T14:57:55.874Z,7.50
2018-02-04T15:00:24.191Z,7.93
2018-02-04T15:02:53.260Z,11.10
2018-02-04T15:05:21.560Z,8.00
2018-02-04T15:07:49.864Z,10.77
2018-02-04T15:10:18.948Z,8.23
2018-02-04T15:12:47.258Z,6.63
2018-02-04T15:15:15.841Z,7.63
2018-02-04T15:17:44.137Z,7.80
2018-02-04T15:20:12.658Z,10.73
2018-02-04T15:22:41.020Z,11.03
2018-02-04T15:25:09.384Z,11.07
2018-02-04T15:27:37.700Z,13.10
2018-02-04T15:30:06.248Z,10.10
2018-02-04T15:32:34.550Z,8.17
2018-02-04T15:35:02.874Z,10.43
2018-02-04T15:37:31.174Z,11.90
2018-02-04T15:40:00.480Z,8.47
2018-02-04T15:42:29.550Z,9.70
2018-02-04T15:44:57.879Z,8.33
2018-02-04T15:47:26.182Z,11.37
2018-02-04T15:49:54.496Z,11.17
2018-02-04T15:52:22.805Z,10.97
2018-02-04T15:54:51.964Z,11.80
2018-02-04T15:57:20.267Z,11.67
2018-02-04T15:59:48.692Z,14.30
2018-02-04T16:02:17.008Z,11.57
2018-02-04T16:04:45.388Z,11.30
2018-02-04T16:07:13.694Z,15.40
2018-02-04T16:09:42.102Z,10.27
2018-02-04T16:12:11.158Z,11.97
2018-02-04T16:14:40.230Z,14.57
2018-02-04T16:17:08.528Z,14.57
2018-02-04T16:19:36.874Z,12.20
2018-02-04T16:22:05.200Z,11.50
2018-02-04T16:24:33.592Z,15.67
2018-02-04T16:27:01.906Z,11.87
2018-02-04T16:29:30.226Z,20.37
2018-02-04T16:31:58.606Z,12.90
2018-02-04T16:34:26.924Z,12.80
2018-02-04T16:36:55.228Z,10.03
2018-02-04T16:39:24.020Z,14.90
2018-02-04T16:41:52.327Z,12.20
2018-02-04T16:44:21.458Z,17.87
2018-02-04T16:46:49.821Z,12.90
2018-02-04T16:49:19.045Z,16.00
2018-02-04T16:51:47.466Z,13.80
2018-02-04T16:54:15.886Z,11.67
2018-02-04T16:56:44.294Z,12.60
2018-02-04T16:59:12.614Z,11.00
2018-02-04T17:01:41.010Z,13.73
2018-02-04T17:04:10.131Z,11.90
2018-02-04T17:06:39.313Z,14.33
2018-02-04T17:09:08.455Z,14.80
2018-02-04T17:11:36.791Z,17.57
2018-02-04T17:14:05.935Z,13.23
2018-02-04T17:16:34.270Z,9.53
2018-02-04T17:19:02.586Z,13.43
2018-02-04T17:21:31.047Z,10.67
2018-02-04T17:24:01.235Z,14.10
2018-02-04T17:26:29.821Z,14.83
2018-02-04T17:28:58.977Z,10.23
2018-02-04T17:31:28.411Z,12.23
2018-02-04T17:33:56.847Z,14.13
2018-02-04T17:36:25.969Z,18.20
2018-02-04T17:38:55.936Z,13.43
2018-02-04T17:41:24.446Z,12.80
2018-02-04T17:43:52.838Z,12.80
2018-02-04T17:46:21.344Z,11.00
2018-02-04T17:48:50.524Z,12.83
2018-02-04T17:51:19.855Z,11.97
2018-02-04T17:53:50.274Z,13.93
2018-02-04T17:56:19.414Z,12.87
2018-02-04T17:58:48.009Z,14.30
2018-02-04T18:01:17.895Z,9.83
2018-02-04T18:03:47.010Z,10.67
2018-02-04T18:06:16.171Z,16.70
2018-02-04T18:08:44.753Z,14.17
2018-02-04T18:11:13.109Z,12.80
2018-02-04T18:13:42.095Z,15.33
2018-02-04T18:16:10.391Z,15.00
2018-02-04T18:18:38.965Z,13.70
2018-02-04T18:21:07.273Z,12.50
2018-02-04T18:23:35.633Z,13.47
2018-02-04T18:26:03.973Z,13.63
2018-02-04T18:28:33.094Z,13.80
2018-02-04T18:31:02.349Z,11.17
2018-02-04T18:33:30.681Z,13.03
2018-02-04T18:35:59.113Z,10.50
2018-02-04T18:38:28.788Z,15.80
2018-02-04T18:40:57.907Z,18.50
2018-02-04T18:43:26.889Z,10.77
2018-02-04T18:45:55.471Z,12.40
2018-02-04T18:48:23.779Z,11.10
2018-02-04T18:50:52.104Z,15.20
2018-02-04T18:53:21.201Z,11.00
2018-02-04T18:55:50.429Z,16.97
2018-02-04T18:58:18.864Z,13.10
2018-02-04T19:00:48.103Z,13.00
2018-02-04T19:03:18.105Z,15.57
2018-02-04T19:05:46.427Z,13.10
2018-02-04T19:08:15.621Z,15.07
2018-02-04T19:10:43.931Z,15.00
2018-02-04T19:13:12.297Z,14.33
2018-02-04T19:15:40.605Z,14.80
2018-02-04T19:18:08.948Z,13.33
2018-02-04T19:20:37.477Z,13.33
2018-02-04T19:23:05.856Z,10.43
2018-02-04T19:25:34.283Z,13.97
2018-02-04T19:28:03.381Z,15.57
2018-02-04T19:30:32.488Z,11.93
2018-02-04T19:33:01.582Z,14.63
2018-02-04T19:35:31.148Z,20.73
2018-02-04T19:38:00.940Z,16.93
2018-02-04T19:40:29.243Z,12.90
2018-02-04T19:42:58.202Z,11.77
2018-02-04T19:45:26.507Z,9.27
2018-02-04T19:47:55.832Z,13.70
2018-02-04T19:50:25.002Z,14.57
2018-02-04T19:52:53.326Z,11.97
2018-02-04T19:55:21.859Z,14.37
2018-02-04T19:57:50.187Z,10.83
2018-02-04T20:00:18.528Z,14.20
2018-02-04T20:02:47.603Z,15.53
2018-02-04T20:05:16.726Z,11.50
2018-02-04T20:07:45.834Z,17.10
2018-02-04T20:10:14.150Z,14.77
2018-02-04T20:12:42.592Z,16.33
2018-02-04T20:15:10.941Z,17.33
2018-02-04T20:17:39.270Z,14.40
2018-02-04T20:20:07.593Z,12.73
2018-02-04T20:22:35.942Z,16.23
2018-02-04T20:25:04.469Z,12.90
2018-02-04T20:27:33.690Z,13.53
2018-02-04T20:30:02.785Z,13.17
2018-02-04T20:32:49.699Z,15.87
2018-02-04T20:35:18.791Z,10.37
2018-02-04T20:37:47.187Z,10.07
2018-02-04T20:40:16.328Z,11.50
2018-02-04T20:42:45.379Z,12.00
2018-02-04T20:45:14.925Z,12.03
2018-02-04T20:47:43.244Z,13.50
2018-02-04T20:50:11.608Z,13.83
2018-02-04T20:52:39.945Z,12.30
2018-02-04T20:55:09.023Z,12.30
2018-02-04T20:57:37.938Z,15.77
2018-02-04T21:00:07.018Z,9.30
2018-02-04T21:02:36.129Z,15.97
2018-02-04T21:05:06.132Z,14.20
2018-02-04T21:07:34.483Z,10.90
2018-02-04T21:10:02.801Z,13.53
2018-02-04T21:12:31.983Z,13.77
2018-02-04T21:15:00.397Z,11.70
2018-02-04T21:17:29.496Z,12.83
2018-02-04T21:19:58.612Z,9.90
2018-02-04T21:22:28.489Z,11.30
2018-02-04T21:24:56.883Z,12.23
2018-02-04T21:27:25.229Z,15.90
2018-02-04T21:29:53.628Z,11.90
2018-02-04T21:32:21.911Z,12.97
2018-02-04T21:34:51.575Z,14.70
2018-02-04T21:37:19.891Z,8.93
2018-02-04T21:39:48.331Z,12.50
2018-02-04T21:42:17.823Z,13.87
2018-02-04T21:44:47.184Z,13.13
2018-02-04T21:47:15.703Z,11.13
2018-02-04T21:49:44.040Z,11.17
2018-02-04T21:52:13.381Z,12.47
2018-02-04T21:54:42.562Z,12.00
2018-02-04T21:57:10.858Z,12.70
2018-02-04T21:59:40.140Z,13.27
2018-02-04T22:02:08.461Z,11.63
2018-02-04T22:04:36.798Z,12.17
2018-02-04T22:07:05.805Z,14.80
2018-02-04T22:09:34.151Z,11.90
2018-02-04T22:12:03.443Z,13.50
2018-02-04T22:14:32.834Z,14.60
2018-02-04T22:17:01.921Z,15.63
2018-02-04T22:19:32.264Z,13.33
2018-02-04T22:22:01.430Z,15.60
2018-02-04T22:24:29.801Z,15.53
2018-02-04T22:26:58.141Z,11.03
2018-02-04T22:29:26.710Z,12.07
2018-02-04T22:31:55.029Z,15.17
2018-02-04T22:34:24.359Z,11.40
2018-02-04T22:36:52.706Z,10.60
2018-02-04T22:39:21.014Z,11.23
2018-02-04T22:41:49.771Z,13.37
2018-02-04T22:44:18.322Z,12.70
2018-02-04T22:46:47.559Z,10.23
2018-02-04T22:49:15.874Z,14.80
2018-02-04T22:51:44.920Z,14.13
2018-02-04T22:54:13.323Z,11.33
2018-02-04T22:56:41.668Z,12.00
2018-02-04T22:59:10.802Z,22.13
2018-02-04T23:01:39.173Z,13.37
2018-02-04T23:04:07.511Z,14.07
2018-02-04T23:06:35.830Z,14.30
2018-02-04T23:09:04.123Z,12.13
2018-02-04T23:11:32.490Z,11.50
2018-02-04T23:14:00.799Z,15.10
2018-02-04T23:16:29.892Z,12.30
2018-02-04T23:18:58.265Z,15.80
2018-02-04T23:21:26.604Z,13.83
2018-02-04T23:23:54.916Z,13.10
2018-02-04T23:26:24.230Z,12.13
2018-02-04T23:28:52.714Z,14.73
2018-02-04T23:31:21.931Z,11.87
2018-02-04T23:33:50.257Z,12.10
2018-02-04T23:36:18.588Z,12.50
2018-02-04T23:38:46.934Z,12.60
2018-02-04T23:41:15.348Z,11.60
2018-02-04T23:43:43.710Z,11.17
2018-02-04T23:46:12.031Z,15.50
2018-02-04T23:48:40.366Z,15.60
2018-02-04T23:51:08.693Z,15.60
2018-02-04T23:53:38.045Z,16.00
2018-02-04T23:56:07.012Z,15.30
2018-02-04T23:58:35.357Z,12.60
